Valley City, Illinois
Current Conditions -  °F | °C
As of 4:35 AM on Thursday 27 Nov 2014 (Local Time) from KPPQ Reporting Station
Overcast Overcast  
Wind Chill: -6°   Ceiling: 1400
Heat Index: -2°   Visibility: 5mi
Dew Point: -4°   Wind: 8mph
Humidity: 88%   Direction: 310°NW
Pressure: 30.38"   Gusts: NA
Location:  39.7046°N, 90.7176°W
Report Text: KPPQ 271035Z AUTO 31007KT 5SM OVC014 M02/M03 A3038 RMK AO2 T10181035 PWINO
Loading
Personal Weather Stations






























Interactive Weather Map New forecast layout! Learn more

10-Day Weather Forecast

Advertisements
Track Severe Weather on mobile